sensor_id;sensor_type;location;lat;lon;timestamp;pressure;altitude;pressure_sealevel;temperature;humidity
65280;BME280;51878;55.748;48.742;2023-08-01T00:03:33;98327.34;;;16.74;100.00
65280;BME280;51878;55.748;48.742;2023-08-01T00:08:35;98352.91;;;16.80;100.00
65280;BME280;51878;55.748;48.742;2023-08-01T00:13:37;98370.38;;;16.79;100.00
65280;BME280;51878;55.748;48.742;2023-08-01T00:18:40;98360.91;;;16.65;100.00
65280;BME280;51878;55.748;48.742;2023-08-01T00:23:42;98343.28;;;16.39;100.00
65280;BME280;51878;55.748;48.742;2023-08-01T00:28:44;98368.63;;;16.51;100.00
65280;BME280;51878;55.748;48.742;2023-08-01T00:33:46;98341.41;;;16.22;100.00
65280;BME280;51878;55.748;48.742;2023-08-01T00:38:48;98367.50;;;16.30;100.00
65280;BME280;51878;55.748;48.742;2023-08-01T00:43:51;98394.28;;;16.28;100.00
65280;BME280;51878;55.748;48.742;2023-08-01T00:48:54;98352.03;;;16.02;100.00
65280;BME280;51878;55.748;48.742;2023-08-01T00:54:00;98376.28;;;15.98;100.00
65280;BME280;51878;55.748;48.742;2023-08-01T00:59:02;98359.09;;;15.81;100.00
65280;BME280;51878;55.748;48.742;2023-08-01T01:04:04;98402.91;;;16.03;100.00
65280;BME280;51878;55.748;48.742;2023-08-01T01:09:19;98409.97;;;15.99;100.00
65280;BME280;51878;55.748;48.742;2023-08-01T01:14:22;98375.66;;;15.74;100.00
65280;BME280;51878;55.748;48.742;2023-08-01T01:19:27;98321.25;;;15.44;100.00
65280;BME280;51878;55.748;48.742;2023-08-01T01:24:30;98374.97;;;15.84;100.00
65280;BME280;51878;55.748;48.742;2023-08-01T01:29:34;98410.97;;;16.09;100.00
65280;BME280;51878;55.748;48.742;2023-08-01T01:34:36;98405.72;;;16.08;100.00
65280;BME280;51878;55.748;48.742;2023-08-01T01:39:38;98416.97;;;16.11;100.00
65280;BME280;51878;55.748;48.742;2023-08-01T01:44:41;98420.56;;;16.12;100.00
65280;BME280;51878;55.748;48.742;2023-08-01T01:49:43;98367.44;;;15.74;100.00
65280;BME280;51878;55.748;48.742;2023-08-01T01:54:45;98426.28;;;16.10;100.00
65280;BME280;51878;55.748;48.742;2023-08-01T01:59:47;98416.31;;;16.04;100.00
65280;BME280;51878;55.748;48.742;2023-08-01T02:04:50;98418.25;;;16.04;100.00
65280;BME280;51878;55.748;48.742;2023-08-01T02:09:52;98417.16;;;16.05;100.00
65280;BME280;51878;55.748;48.742;2023-08-01T02:14:54;98403.81;;;15.91;100.00
65280;BME280;51878;55.748;48.742;2023-08-01T02:19:57;98389.31;;;15.74;100.00
65280;BME280;51878;55.748;48.742;2023-08-01T02:24:59;98356.38;;;15.52;100.00
65280;BME280;51878;55.748;48.742;2023-08-01T02:30:01;98422.63;;;15.88;100.00
65280;BME280;51878;55.748;48.742;2023-08-01T02:35:05;98391.09;;;15.68;100.00
65280;BME280;51878;55.748;48.742;2023-08-01T02:40:08;98416.34;;;15.87;100.00
65280;BME280;51878;55.748;48.742;2023-08-01T02:45:11;98386.94;;;15.66;100.00
65280;BME280;51878;55.748;48.742;2023-08-01T02:50:13;98427.66;;;15.96;100.00
65280;BME280;51878;55.748;48.742;2023-08-01T02:55:15;98383.25;;;15.89;100.00
65280;BME280;51878;55.748;48.742;2023-08-01T03:00:17;98366.09;;;15.94;100.00
65280;BME280;51878;55.748;48.742;2023-08-01T03:05:20;98372.50;;;15.99;100.00
65280;BME280;51878;55.748;48.742;2023-08-01T03:10:23;98397.59;;;16.13;100.00
65280;BME280;51878;55.748;48.742;2023-08-01T03:15:31;98408.78;;;16.28;100.00
65280;BME280;51878;55.748;48.742;2023-08-01T03:20:34;98376.22;;;16.10;100.00
65280;BME280;51878;55.748;48.742;2023-08-01T03:25:36;98388.56;;;16.29;100.00
65280;BME280;51878;55.748;48.742;2023-08-01T03:30:38;98406.75;;;16.58;100.00
65280;BME280;51878;55.748;48.742;2023-08-01T03:35:40;98408.66;;;16.74;100.00
65280;BME280;51878;55.748;48.742;2023-08-01T03:40:43;98415.88;;;16.80;100.00
65280;BME280;51878;55.748;48.742;2023-08-01T03:45:45;98408.31;;;16.87;100.00
65280;BME280;51878;55.748;48.742;2023-08-01T03:50:47;98419.47;;;17.03;100.00
65280;BME280;51878;55.748;48.742;2023-08-01T03:55:50;98399.53;;;17.07;100.00
65280;BME280;51878;55.748;48.742;2023-08-01T04:00:52;98429.97;;;17.33;100.00
65280;BME280;51878;55.748;48.742;2023-08-01T04:05:55;98433.00;;;17.37;100.00
65280;BME280;51878;55.748;48.742;2023-08-01T04:10:57;98393.03;;;17.13;100.00
65280;BME280;51878;55.748;48.742;2023-08-01T04:15:59;98360.34;;;17.07;100.00
65280;BME280;51878;55.748;48.742;2023-08-01T04:21:03;98438.88;;;17.72;100.00
65280;BME280;51878;55.748;48.742;2023-08-01T04:26:05;98397.22;;;17.70;100.00
65280;BME280;51878;55.748;48.742;2023-08-01T04:31:10;98380.63;;;17.82;100.00
65280;BME280;51878;55.748;48.742;2023-08-01T04:36:13;98399.88;;;18.20;100.00
65280;BME280;51878;55.748;48.742;2023-08-01T04:41:16;98399.16;;;18.34;100.00
65280;BME280;51878;55.748;48.742;2023-08-01T04:46:19;98375.75;;;18.27;100.00
65280;BME280;51878;55.748;48.742;2023-08-01T04:51:22;98411.75;;;18.73;100.00
65280;BME280;51878;55.748;48.742;2023-08-01T04:56:24;98362.81;;;18.59;100.00
65280;BME280;51878;55.748;48.742;2023-08-01T05:01:26;98398.47;;;18.97;100.00
65280;BME280;51878;55.748;48.742;2023-08-01T05:06:29;98413.97;;;19.24;100.00
65280;BME280;51878;55.748;48.742;2023-08-01T05:11:33;98396.41;;;19.30;100.00
65280;BME280;51878;55.748;48.742;2023-08-01T05:16:46;98422.00;;;19.51;100.00
65280;BME280;51878;55.748;48.742;2023-08-01T05:21:48;98419.81;;;19.53;100.00
65280;BME280;51878;55.748;48.742;2023-08-01T05:26:50;98416.38;;;19.93;100.00
65280;BME280;51878;55.748;48.742;2023-08-01T05:31:53;98410.59;;;20.10;100.00
65280;BME280;51878;55.748;48.742;2023-08-01T05:36:59;98411.41;;;20.36;100.00
65280;BME280;51878;55.748;48.742;2023-08-01T05:42:01;98429.59;;;20.37;100.00
65280;BME280;51878;55.748;48.742;2023-08-01T05:47:03;98445.00;;;20.23;100.00
65280;BME280;51878;55.748;48.742;2023-08-01T05:52:06;98414.16;;;20.47;100.00
65280;BME280;51878;55.748;48.742;2023-08-01T05:57:08;98427.66;;;20.63;100.00
65280;BME280;51878;55.748;48.742;2023-08-01T06:02:14;98392.09;;;20.72;100.00
65280;BME280;51878;55.748;48.742;2023-08-01T06:07:23;98435.03;;;21.04;100.00
65280;BME280;51878;55.748;48.742;2023-08-01T06:12:25;98438.31;;;21.11;100.00
65280;BME280;51878;55.748;48.742;2023-08-01T06:17:28;98412.94;;;21.09;100.00
65280;BME280;51878;55.748;48.742;2023-08-01T06:22:30;98416.47;;;21.30;100.00
65280;BME280;51878;55.748;48.742;2023-08-01T06:27:34;98420.78;;;21.57;100.00
65280;BME280;51878;55.748;48.742;2023-08-01T06:32:43;98363.84;;;21.21;100.00
65280;BME280;51878;55.748;48.742;2023-08-01T06:37:45;98372.03;;;21.42;100.00
65280;BME280;51878;55.748;48.742;2023-08-01T06:42:47;98371.38;;;21.55;100.00
65280;BME280;51878;55.748;48.742;2023-08-01T06:47:49;98413.81;;;21.64;100.00
65280;BME280;51878;55.748;48.742;2023-08-01T06:52:52;98420.69;;;21.72;100.00
65280;BME280;51878;55.748;48.742;2023-08-01T06:57:54;98439.09;;;22.21;100.00
65280;BME280;51878;55.748;48.742;2023-08-01T07:02:57;98460.53;;;21.95;94.18
65280;BME280;51878;55.748;48.742;2023-08-01T07:07:59;98467.59;;;21.67;100.00
65280;BME280;51878;55.748;48.742;2023-08-01T07:13:02;98479.38;;;21.88;100.00
65280;BME280;51878;55.748;48.742;2023-08-01T07:18:10;98467.13;;;21.55;100.00
65280;BME280;51878;55.748;48.742;2023-08-01T07:23:12;98447.84;;;21.50;100.00
65280;BME280;51878;55.748;48.742;2023-08-01T07:28:15;98475.84;;;21.77;100.00
65280;BME280;51878;55.748;48.742;2023-08-01T07:33:17;98431.69;;;21.77;95.91
65280;BME280;51878;55.748;48.742;2023-08-01T07:38:19;98441.16;;;22.05;97.60
65280;BME280;51878;55.748;48.742;2023-08-01T07:43:21;98475.06;;;22.51;92.45
65280;BME280;51878;55.748;48.742;2023-08-01T07:48:25;98446.03;;;22.19;90.60
65280;BME280;51878;55.748;48.742;2023-08-01T07:53:27;98445.75;;;22.20;92.67
65280;BME280;51878;55.748;48.742;2023-08-01T07:58:30;98467.97;;;22.74;93.36
65280;BME280;51878;55.748;48.742;2023-08-01T08:03:32;98486.88;;;23.68;88.54
65280;BME280;51878;55.748;48.742;2023-08-01T08:08:37;98420.91;;;23.32;83.69
65280;BME280;51878;55.748;48.742;2023-08-01T08:13:39;98452.81;;;23.00;85.05
65280;BME280;51878;55.748;48.742;2023-08-01T08:18:43;98434.47;;;22.51;90.37
65280;BME280;51878;55.748;48.742;2023-08-01T08:23:46;98493.97;;;22.73;91.84
65280;BME280;51878;55.748;48.742;2023-08-01T08:28:48;98424.19;;;22.27;93.38
65280;BME280;51878;55.748;48.742;2023-08-01T08:33:50;98505.88;;;22.68;93.53
65280;BME280;51878;55.748;48.742;2023-08-01T08:38:52;98470.53;;;22.31;96.64
65280;BME280;51878;55.748;48.742;2023-08-01T08:43:59;98510.97;;;22.56;95.36
65280;BME280;51878;55.748;48.742;2023-08-01T08:49:03;98506.56;;;22.84;94.99
65280;BME280;51878;55.748;48.742;2023-08-01T08:54:06;98502.38;;;22.57;93.80
65280;BME280;51878;55.748;48.742;2023-08-01T08:59:10;98515.84;;;22.30;95.55
65280;BME280;51878;55.748;48.742;2023-08-01T09:04:12;98433.72;;;21.61;100.00
65280;BME280;51878;55.748;48.742;2023-08-01T09:09:15;98496.25;;;22.26;99.97
65280;BME280;51878;55.748;48.742;2023-08-01T09:14:18;98506.81;;;22.53;93.83
65280;BME280;51878;55.748;48.742;2023-08-01T09:19:24;98496.94;;;22.47;96.43
65280;BME280;51878;55.748;48.742;2023-08-01T09:24:29;98498.78;;;22.57;96.46
65280;BME280;51878;55.748;48.742;2023-08-01T09:29:31;98517.44;;;22.41;99.01
65280;BME280;51878;55.748;48.742;2023-08-01T09:34:34;98520.78;;;22.33;100.00
65280;BME280;51878;55.748;48.742;2023-08-01T09:39:37;98513.94;;;22.20;100.00
65280;BME280;51878;55.748;48.742;2023-08-01T09:44:45;98522.25;;;22.25;100.00
65280;BME280;51878;55.748;48.742;2023-08-01T09:49:49;98530.50;;;22.30;100.00
65280;BME280;51878;55.748;48.742;2023-08-01T09:54:56;98483.03;;;22.23;100.00
65280;BME280;51878;55.748;48.742;2023-08-01T09:59:59;98541.25;;;22.71;100.00
65280;BME280;51878;55.748;48.742;2023-08-01T10:05:02;98534.88;;;22.70;100.00
65280;BME280;51878;55.748;48.742;2023-08-01T10:10:05;98485.38;;;22.45;100.00
65280;BME280;51878;55.748;48.742;2023-08-01T10:15:11;98535.63;;;22.47;100.00
65280;BME280;51878;55.748;48.742;2023-08-01T10:20:14;98525.06;;;22.54;100.00
65280;BME280;51878;55.748;48.742;2023-08-01T10:25:17;98458.72;;;22.20;100.00
65280;BME280;51878;55.748;48.742;2023-08-01T10:30:26;98451.09;;;22.46;100.00
65280;BME280;51878;55.748;48.742;2023-08-01T10:35:38;98503.66;;;23.04;100.00
65280;BME280;51878;55.748;48.742;2023-08-01T10:40:44;98497.38;;;23.23;98.40
65280;BME280;51878;55.748;48.742;2023-08-01T10:45:46;98516.19;;;23.69;96.66
65280;BME280;51878;55.748;48.742;2023-08-01T10:50:58;98445.25;;;23.54;93.79
65280;BME280;51878;55.748;48.742;2023-08-01T10:56:01;98508.28;;;24.24;91.41
65280;BME280;51878;55.748;48.742;2023-08-01T11:01:03;98474.72;;;24.07;88.26
65280;BME280;51878;55.748;48.742;2023-08-01T11:06:08;98433.03;;;23.98;87.66
65280;BME280;51878;55.748;48.742;2023-08-01T11:11:12;98504.78;;;24.19;85.27
65280;BME280;51878;55.748;48.742;2023-08-01T11:16:16;98517.09;;;23.88;88.29
65280;BME280;51878;55.748;48.742;2023-08-01T11:21:26;98496.03;;;23.44;91.76
65280;BME280;51878;55.748;48.742;2023-08-01T11:26:29;98487.41;;;22.93;97.13
65280;BME280;51878;55.748;48.742;2023-08-01T11:31:33;98422.50;;;22.26;100.00
65280;BME280;51878;55.748;48.742;2023-08-01T11:36:36;98490.78;;;22.55;100.00
65280;BME280;51878;55.748;48.742;2023-08-01T11:41:51;98520.84;;;23.25;100.00
65280;BME280;51878;55.748;48.742;2023-08-01T11:46:54;98476.81;;;23.96;99.13
65280;BME280;51878;55.748;48.742;2023-08-01T11:51:56;98464.09;;;24.85;89.05
65280;BME280;51878;55.748;48.742;2023-08-01T11:57:05;98525.28;;;25.35;77.36
65280;BME280;51878;55.748;48.742;2023-08-01T12:02:11;98524.47;;;25.21;79.53
65280;BME280;51878;55.748;48.742;2023-08-01T12:07:14;98502.28;;;24.55;83.31
65280;BME280;51878;55.748;48.742;2023-08-01T12:12:17;98478.59;;;23.44;86.38
65280;BME280;51878;55.748;48.742;2023-08-01T12:17:20;98476.41;;;23.17;91.23
65280;BME280;51878;55.748;48.742;2023-08-01T12:22:22;98498.63;;;23.36;92.28
65280;BME280;51878;55.748;48.742;2023-08-01T12:27:25;98518.91;;;23.50;88.92
65280;BME280;51878;55.748;48.742;2023-08-01T12:32:28;98498.16;;;23.28;88.17
65280;BME280;51878;55.748;48.742;2023-08-01T12:37:30;98506.75;;;23.70;89.06
65280;BME280;51878;55.748;48.742;2023-08-01T12:42:32;98463.44;;;24.03;86.46
65280;BME280;51878;55.748;48.742;2023-08-01T12:47:34;98503.09;;;24.56;82.54
65280;BME280;51878;55.748;48.742;2023-08-01T12:52:37;98497.03;;;24.86;82.42
65280;BME280;51878;55.748;48.742;2023-08-01T12:57:39;98481.78;;;25.16;79.11
65280;BME280;51878;55.748;48.742;2023-08-01T13:02:41;98518.22;;;25.70;77.06
65280;BME280;51878;55.748;48.742;2023-08-01T13:07:43;98512.56;;;25.75;75.94
65280;BME280;51878;55.748;48.742;2023-08-01T13:12:46;98509.63;;;26.22;73.98
65280;BME280;51878;55.748;48.742;2023-08-01T13:17:48;98470.69;;;26.00;71.50
65280;BME280;51878;55.748;48.742;2023-08-01T13:22:51;98512.19;;;26.18;71.50
65280;BME280;51878;55.748;48.742;2023-08-01T13:27:53;98514.34;;;26.58;69.58
65280;BME280;51878;55.748;48.742;2023-08-01T13:32:56;98482.53;;;26.28;70.33
65280;BME280;51878;55.748;48.742;2023-08-01T13:37:58;98475.53;;;25.66;74.65
65280;BME280;51878;55.748;48.742;2023-08-01T13:43:00;98485.53;;;25.26;79.28
65280;BME280;51878;55.748;48.742;2023-08-01T13:48:03;98489.53;;;24.87;83.41
65280;BME280;51878;55.748;48.742;2023-08-01T13:53:05;98516.56;;;25.83;81.79
65280;BME280;51878;55.748;48.742;2023-08-01T13:58:12;98465.16;;;27.61;66.97
65280;BME280;51878;55.748;48.742;2023-08-01T14:03:14;98476.34;;;27.30;64.33
65280;BME280;51878;55.748;48.742;2023-08-01T14:08:17;98526.00;;;27.36;64.43
65280;BME280;51878;55.748;48.742;2023-08-01T14:13:19;98495.59;;;26.86;64.54
65280;BME280;51878;55.748;48.742;2023-08-01T14:18:21;98487.50;;;26.17;67.49
65280;BME280;51878;55.748;48.742;2023-08-01T14:23:23;98522.19;;;26.20;68.33
65280;BME280;51878;55.748;48.742;2023-08-01T14:28:26;98513.47;;;25.57;71.53
65280;BME280;51878;55.748;48.742;2023-08-01T14:33:28;98452.81;;;24.62;75.67
65280;BME280;51878;55.748;48.742;2023-08-01T14:38:31;98507.22;;;24.39;81.88
65280;BME280;51878;55.748;48.742;2023-08-01T14:43:33;98532.31;;;24.29;84.88
65280;BME280;51878;55.748;48.742;2023-08-01T14:48:35;98527.44;;;24.02;88.06
65280;BME280;51878;55.748;48.742;2023-08-01T14:53:37;98534.75;;;23.68;92.19
65280;BME280;51878;55.748;48.742;2023-08-01T14:58:40;98492.09;;;23.26;94.82
65280;BME280;51878;55.748;48.742;2023-08-01T15:03:43;98493.06;;;23.12;96.99
65280;BME280;51878;55.748;48.742;2023-08-01T15:08:45;98530.31;;;23.19;96.93
65280;BME280;51878;55.748;48.742;2023-08-01T15:13:47;98445.69;;;22.60;96.51
65280;BME280;51878;55.748;48.742;2023-08-01T15:18:50;98518.69;;;22.88;98.54
65280;BME280;51878;55.748;48.742;2023-08-01T15:23:52;98442.03;;;22.40;97.23
65280;BME280;51878;55.748;48.742;2023-08-01T15:28:58;98515.38;;;22.91;99.05
65280;BME280;51878;55.748;48.742;2023-08-01T15:34:00;98485.91;;;22.76;96.98
65280;BME280;51878;55.748;48.742;2023-08-01T15:39:05;98504.09;;;22.82;96.79
65280;BME280;51878;55.748;48.742;2023-08-01T15:44:07;98512.34;;;22.58;98.17
65280;BME280;51878;55.748;48.742;2023-08-01T15:49:10;98530.84;;;22.58;99.30
65280;BME280;51878;55.748;48.742;2023-08-01T15:54:12;98529.84;;;22.43;100.00
65280;BME280;51878;55.748;48.742;2023-08-01T15:59:15;98533.53;;;22.28;100.00
65280;BME280;51878;55.748;48.742;2023-08-01T16:04:17;98539.16;;;22.08;100.00
65280;BME280;51878;55.748;48.742;2023-08-01T16:09:19;98535.97;;;21.85;100.00
65280;BME280;51878;55.748;48.742;2023-08-01T16:14:21;98498.88;;;21.42;100.00
65280;BME280;51878;55.748;48.742;2023-08-01T16:19:41;98533.63;;;21.48;100.00
65280;BME280;51878;55.748;48.742;2023-08-01T16:24:46;98506.66;;;21.09;100.00
65280;BME280;51878;55.748;48.742;2023-08-01T16:29:48;98511.13;;;20.74;100.00
65280;BME280;51878;55.748;48.742;2023-08-01T16:34:51;98546.38;;;20.88;100.00
65280;BME280;51878;55.748;48.742;2023-08-01T16:39:53;98554.38;;;20.84;100.00
65280;BME280;51878;55.748;48.742;2023-08-01T16:44:58;98556.59;;;20.77;100.00
65280;BME280;51878;55.748;48.742;2023-08-01T16:50:00;98538.13;;;20.57;100.00
65280;BME280;51878;55.748;48.742;2023-08-01T16:55:05;98569.53;;;20.71;100.00
65280;BME280;51878;55.748;48.742;2023-08-01T17:00:08;98537.84;;;20.58;100.00
65280;BME280;51878;55.748;48.742;2023-08-01T17:05:11;98524.31;;;20.36;100.00
65280;BME280;51878;55.748;48.742;2023-08-01T17:10:15;98506.38;;;20.13;100.00
65280;BME280;51878;55.748;48.742;2023-08-01T17:15:18;98552.66;;;20.37;100.00
65280;BME280;51878;55.748;48.742;2023-08-01T17:20:20;98556.75;;;20.19;100.00
65280;BME280;51878;55.748;48.742;2023-08-01T17:25:22;98530.53;;;19.86;100.00
65280;BME280;51878;55.748;48.742;2023-08-01T17:30:24;98574.06;;;20.04;100.00
65280;BME280;51878;55.748;48.742;2023-08-01T17:35:27;98540.06;;;19.68;100.00
65280;BME280;51878;55.748;48.742;2023-08-01T17:40:29;98573.41;;;19.76;100.00
65280;BME280;51878;55.748;48.742;2023-08-01T17:45:31;98573.31;;;19.66;100.00
65280;BME280;51878;55.748;48.742;2023-08-01T17:50:33;98537.47;;;19.40;100.00
65280;BME280;51878;55.748;48.742;2023-08-01T17:55:36;98524.72;;;19.24;100.00
65280;BME280;51878;55.748;48.742;2023-08-01T18:00:38;98569.59;;;19.40;100.00
65280;BME280;51878;55.748;48.742;2023-08-01T18:05:41;98583.63;;;19.38;100.00
65280;BME280;51878;55.748;48.742;2023-08-01T18:10:43;98577.53;;;19.31;100.00
65280;BME280;51878;55.748;48.742;2023-08-01T18:15:45;98581.06;;;19.27;100.00
65280;BME280;51878;55.748;48.742;2023-08-01T18:20:56;98584.34;;;19.18;100.00
65280;BME280;51878;55.748;48.742;2023-08-01T18:25:59;98539.72;;;18.74;100.00
65280;BME280;51878;55.748;48.742;2023-08-01T18:31:09;98588.88;;;19.03;100.00
65280;BME280;51878;55.748;48.742;2023-08-01T18:36:14;98565.09;;;18.81;100.00
65280;BME280;51878;55.748;48.742;2023-08-01T18:41:16;98499.59;;;18.35;100.00
65280;BME280;51878;55.748;48.742;2023-08-01T18:46:21;98571.16;;;18.83;100.00
65280;BME280;51878;55.748;48.742;2023-08-01T18:51:25;98582.09;;;18.78;100.00
65280;BME280;51878;55.748;48.742;2023-08-01T18:56:27;98575.41;;;18.74;100.00
65280;BME280;51878;55.748;48.742;2023-08-01T19:01:29;98554.66;;;18.51;100.00
65280;BME280;51878;55.748;48.742;2023-08-01T19:06:32;98547.19;;;18.46;100.00
65280;BME280;51878;55.748;48.742;2023-08-01T19:11:34;98584.09;;;18.61;100.00
65280;BME280;51878;55.748;48.742;2023-08-01T19:16:37;98544.31;;;18.31;100.00
65280;BME280;51878;55.748;48.742;2023-08-01T19:21:39;98561.69;;;18.42;100.00
65280;BME280;51878;55.748;48.742;2023-08-01T19:26:41;98560.66;;;18.48;100.00
65280;BME280;51878;55.748;48.742;2023-08-01T19:31:44;98551.22;;;18.38;100.00
65280;BME280;51878;55.748;48.742;2023-08-01T19:36:49;98545.69;;;18.33;100.00
65280;BME280;51878;55.748;48.742;2023-08-01T19:41:51;98584.03;;;18.50;100.00
65280;BME280;51878;55.748;48.742;2023-08-01T19:46:54;98488.97;;;17.85;100.00
65280;BME280;51878;55.748;48.742;2023-08-01T19:51:56;98594.28;;;18.33;100.00
65280;BME280;51878;55.748;48.742;2023-08-01T19:56:59;98583.19;;;18.23;100.00
65280;BME280;51878;55.748;48.742;2023-08-01T20:02:02;98545.00;;;17.94;100.00
65280;BME280;51878;55.748;48.742;2023-08-01T20:07:04;98604.34;;;18.27;100.00
65280;BME280;51878;55.748;48.742;2023-08-01T20:12:07;98606.28;;;18.27;100.00
65280;BME280;51878;55.748;48.742;2023-08-01T20:17:09;98577.53;;;18.07;100.00
65280;BME280;51878;55.748;48.742;2023-08-01T20:22:13;98553.13;;;17.84;100.00
65280;BME280;51878;55.748;48.742;2023-08-01T20:27:33;98612.94;;;18.09;100.00
65280;BME280;51878;55.748;48.742;2023-08-01T20:32:37;98496.66;;;17.22;100.00
65280;BME280;51878;55.748;48.742;2023-08-01T20:37:39;98633.06;;;17.92;100.00
65280;BME280;51878;55.748;48.742;2023-08-01T20:42:42;98616.47;;;17.65;100.00
65280;BME280;51878;55.748;48.742;2023-08-01T20:47:44;98602.63;;;17.55;100.00
65280;BME280;51878;55.748;48.742;2023-08-01T20:52:53;98653.59;;;17.73;100.00
65280;BME280;51878;55.748;48.742;2023-08-01T20:57:55;98653.50;;;17.68;100.00
65280;BME280;51878;55.748;48.742;2023-08-01T21:02:57;98649.94;;;17.67;100.00
65280;BME280;51878;55.748;48.742;2023-08-01T21:07:59;98609.78;;;17.39;100.00
65280;BME280;51878;55.748;48.742;2023-08-01T21:13:02;98652.94;;;17.66;100.00
65280;BME280;51878;55.748;48.742;2023-08-01T21:18:04;98649.59;;;17.64;100.00
65280;BME280;51878;55.748;48.742;2023-08-01T21:23:08;98659.00;;;17.68;100.00
65280;BME280;51878;55.748;48.742;2023-08-01T21:28:11;98656.53;;;17.66;100.00
65280;BME280;51878;55.748;48.742;2023-08-01T21:33:13;98660.66;;;17.69;100.00
65280;BME280;51878;55.748;48.742;2023-08-01T21:38:17;98624.25;;;17.34;100.00
65280;BME280;51878;55.748;48.742;2023-08-01T21:43:19;98593.56;;;17.16;100.00
65280;BME280;51878;55.748;48.742;2023-08-01T21:48:22;98626.16;;;17.34;100.00
65280;BME280;51878;55.748;48.742;2023-08-01T21:53:24;98612.22;;;17.19;100.00
65280;BME280;51878;55.748;48.742;2023-08-01T21:58:27;98655.44;;;17.50;100.00
65280;BME280;51878;55.748;48.742;2023-08-01T22:03:29;98643.34;;;17.46;100.00
65280;BME280;51878;55.748;48.742;2023-08-01T22:08:31;98627.50;;;17.31;100.00
65280;BME280;51878;55.748;48.742;2023-08-01T22:13:33;98663.19;;;17.53;100.00
65280;BME280;51878;55.748;48.742;2023-08-01T22:18:36;98680.13;;;17.50;100.00
65280;BME280;51878;55.748;48.742;2023-08-01T22:23:38;98610.06;;;17.04;100.00
65280;BME280;51878;55.748;48.742;2023-08-01T22:28:40;98685.22;;;17.42;100.00
65280;BME280;51878;55.748;48.742;2023-08-01T22:33:43;98633.41;;;17.06;100.00
65280;BME280;51878;55.748;48.742;2023-08-01T22:38:45;98680.47;;;17.37;100.00
65280;BME280;51878;55.748;48.742;2023-08-01T22:43:48;98671.59;;;17.30;100.00
65280;BME280;51878;55.748;48.742;2023-08-01T22:48:50;98667.84;;;17.19;100.00
65280;BME280;51878;55.748;48.742;2023-08-01T22:53:53;98641.13;;;16.92;100.00
65280;BME280;51878;55.748;48.742;2023-08-01T22:58:55;98633.00;;;16.81;100.00
65280;BME280;51878;55.748;48.742;2023-08-01T23:03:57;98675.66;;;16.93;100.00
65280;BME280;51878;55.748;48.742;2023-08-01T23:09:00;98689.34;;;16.93;100.00
65280;BME280;51878;55.748;48.742;2023-08-01T23:14:02;98682.28;;;16.81;100.00
65280;BME280;51878;55.748;48.742;2023-08-01T23:19:04;98682.72;;;16.78;100.00
65280;BME280;51878;55.748;48.742;2023-08-01T23:24:07;98654.22;;;16.62;100.00
65280;BME280;51878;55.748;48.742;2023-08-01T23:29:09;98700.69;;;16.85;100.00
65280;BME280;51878;55.748;48.742;2023-08-01T23:34:11;98664.22;;;16.68;100.00
65280;BME280;51878;55.748;48.742;2023-08-01T23:39:13;98699.38;;;16.88;100.00
65280;BME280;51878;55.748;48.742;2023-08-01T23:44:15;98664.44;;;16.66;100.00
65280;BME280;51878;55.748;48.742;2023-08-01T23:49:18;98694.13;;;16.86;100.00
65280;BME280;51878;55.748;48.742;2023-08-01T23:54:20;98668.28;;;16.65;100.00
65280;BME280;51878;55.748;48.742;2023-08-01T23:59:22;98654.38;;;16.55;100.00
